Time;durP1;ratioP1;P1;durP2;ratioP2;P2;SDS_P1;SDS_P2;PMS_P1;PMS_P2;Temp;Humidity;BMP_temperature;BMP_pressure;BME280_temperature;BME280_humidity;BME280_pressure;Samples;Min_cycle;Max_cycle;Signal;HPM_P1;HPM_P2
2023/05/11 00:00:38;;;;;;;;;15.00;14.00;;;;;14.01;78.18;101453.25;4954656;28;10389;-64
2023/05/11 00:03:05;;;;;;;;;17.25;10.75;;;;;13.99;78.43;101442.63;4932988;28;9725;-65
2023/05/11 00:05:31;;;;;;;;;16.00;11.50;;;;;13.97;78.77;101446.56;4953699;28;9629;-64
2023/05/11 00:07:58;;;;;;;;;16.25;14.50;;;;;13.99;78.73;101447.22;4950024;28;9716;-64
2023/05/11 00:10:24;;;;;;;;;15.50;14.75;;;;;14.00;78.34;101452.41;4951082;28;9972;-64
2023/05/11 00:12:51;;;;;;;;;16.75;15.00;;;;;14.04;78.37;101447.44;4959674;28;9640;-64
2023/05/11 00:15:17;;;;;;;;;16.25;15.00;;;;;14.06;78.40;101442.69;4928442;28;9597;-62
2023/05/11 00:17:44;;;;;;;;;14.00;13.00;;;;;14.09;78.26;101450.38;4935002;28;9906;-64
2023/05/11 00:20:10;;;;;;;;;20.50;15.50;;;;;14.10;78.31;101442.06;4945422;28;9923;-65
2023/05/11 00:22:38;;;;;;;;;22.00;15.00;;;;;14.10;78.31;101438.53;4951081;28;10036;-63
2023/05/11 00:25:05;;;;;;;;;18.75;17.50;;;;;14.09;78.39;101436.84;4951934;28;9842;-64
2023/05/11 00:27:31;;;;;;;;;19.75;19.25;;;;;14.08;78.22;101432.47;4961933;28;10693;-63
2023/05/11 00:29:58;;;;;;;;;15.25;12.25;;;;;14.06;78.20;101435.38;4921192;28;9910;-63
2023/05/11 00:32:24;;;;;;;;;23.75;15.25;;;;;14.06;78.29;101435.38;4938636;28;9804;-65
2023/05/11 00:34:51;;;;;;;;;27.75;23.50;;;;;14.07;78.74;101438.94;4948726;28;9803;-63
2023/05/11 00:37:17;;;;;;;;;20.75;17.00;;;;;14.07;78.66;101444.34;4954820;28;9892;-64
2023/05/11 00:39:44;;;;;;;;;18.00;15.00;;;;;14.00;78.72;101433.47;4941335;28;9979;-63
2023/05/11 00:42:10;;;;;;;;;15.25;13.50;;;;;13.98;79.05;101443.69;4958088;28;9798;-63
2023/05/11 00:44:37;;;;;;;;;21.25;17.00;;;;;13.96;79.05;101434.09;4948689;28;9811;-64
2023/05/11 00:47:03;;;;;;;;;18.50;17.75;;;;;13.96;78.99;101440.31;4931843;29;9845;-63
2023/05/11 00:49:31;;;;;;;;;23.25;18.75;;;;;13.96;79.01;101434.91;4936315;28;10151;-64
2023/05/11 00:52:01;;;;;;;;;21.50;16.50;;;;;13.97;79.28;101435.75;4934151;28;9908;-64
2023/05/11 00:54:28;;;;;;;;;23.75;15.50;;;;;13.91;78.96;101426.56;4939914;28;9815;-63
2023/05/11 00:56:54;;;;;;;;;23.00;18.25;;;;;13.91;79.53;101423.03;4958904;28;9825;-63
2023/05/11 00:59:22;;;;;;;;;18.00;14.75;;;;;13.88;79.22;101429.69;4949481;28;9708;-64
2023/05/11 01:01:48;;;;;;;;;18.75;12.75;;;;;13.90;79.58;101424.91;4932340;28;9955;-64
2023/05/11 01:04:15;;;;;;;;;19.25;18.50;;;;;13.92;79.14;101430.13;4941672;28;9819;-63
2023/05/11 01:06:46;;;;;;;;;21.00;19.75;;;;;13.90;79.17;101435.75;4941501;28;9894;-64
2023/05/11 01:09:47;;;;;;;;;17.25;15.75;;;;;13.93;79.05;101427.19;4934114;28;11454;-64
2023/05/11 01:12:17;;;;;;;;;27.25;23.50;;;;;13.92;79.34;101424.69;4961557;28;9831;-63
2023/05/11 01:14:53;;;;;;;;;17.50;17.50;;;;;13.92;78.94;101427.41;4940941;28;9797;-64
2023/05/11 01:17:31;;;;;;;;;18.00;17.25;;;;;13.89;79.15;101428.63;4956806;28;9824;-64
2023/05/11 01:20:11;;;;;;;;;23.00;20.50;;;;;13.89;79.07;101431.34;4918904;28;9796;-64
2023/05/11 01:22:55;;;;;;;;;21.50;20.75;;;;;13.89;79.29;101436.75;4935679;28;9887;-64
2023/05/11 01:25:50;;;;;;;;;27.75;22.50;;;;;13.93;78.91;101431.78;4955141;28;10679;-65
2023/05/11 01:28:32;;;;;;;;;18.00;15.75;;;;;13.94;78.98;101433.47;4929953;29;9810;-65
2023/05/11 01:31:11;;;;;;;;;21.00;20.00;;;;;13.92;78.97;101438.22;4946890;29;9642;-65
2023/05/11 01:33:46;;;;;;;;;16.75;16.50;;;;;13.90;78.98;101438.44;4916494;29;10194;-64
2023/05/11 01:36:15;;;;;;;;;26.75;21.00;;;;;13.90;79.14;101443.03;4961495;28;9949;-64
2023/05/11 01:38:46;;;;;;;;;26.75;19.50;;;;;13.91;79.13;101444.69;4954222;28;10011;-64
2023/05/11 01:41:16;;;;;;;;;23.00;19.25;;;;;13.93;79.26;101440.72;4946362;28;9875;-64
2023/05/11 01:43:57;;;;;;;;;17.25;15.75;;;;;13.93;78.96;101437.19;4957019;28;9788;-65
2023/05/11 01:46:26;;;;;;;;;26.00;24.25;;;;;13.91;78.96;101436.56;4948769;28;9905;-63
2023/05/11 01:48:55;;;;;;;;;21.75;18.50;;;;;13.93;79.39;101439.91;4940485;28;9985;-63
2023/05/11 01:51:29;;;;;;;;;18.75;15.25;;;;;13.93;79.30;101438.03;4938013;28;10082;-64
2023/05/11 01:53:58;;;;;;;;;17.00;14.00;;;;;13.95;79.57;101440.53;4962642;28;9803;-64
2023/05/11 01:56:26;;;;;;;;;16.50;13.75;;;;;13.93;79.59;101438.03;4959474;28;9897;-64
2023/05/11 01:58:55;;;;;;;;;15.75;14.25;;;;;13.94;79.75;101437.00;4949857;28;9656;-64
2023/05/11 02:01:23;;;;;;;;;15.25;12.50;;;;;13.90;79.47;101434.91;4949383;28;9690;-64
2023/05/11 02:03:51;;;;;;;;;14.50;11.75;;;;;13.82;79.87;101447.56;4945415;28;9587;-64
2023/05/11 02:06:20;;;;;;;;;14.50;12.25;;;;;13.76;80.55;101444.81;4943276;28;9790;-64
2023/05/11 02:08:49;;;;;;;;;11.50;11.50;;;;;13.77;80.82;101447.34;4940622;28;9643;-65
2023/05/11 02:11:17;;;;;;;;;18.75;15.75;;;;;13.77;80.71;101451.88;4960600;28;9637;-64
2023/05/11 02:13:46;;;;;;;;;18.75;15.00;;;;;13.80;80.92;101452.31;4949640;28;9710;-64
2023/05/11 02:16:14;;;;;;;;;14.50;13.75;;;;;13.80;80.93;101448.78;4921089;29;9748;-64
2023/05/11 02:18:41;;;;;;;;;17.75;13.00;;;;;13.80;80.73;101446.09;4951883;28;9864;-64
2023/05/11 02:21:09;;;;;;;;;15.75;13.00;;;;;13.79;80.66;101447.13;4943980;28;9728;-64
2023/05/11 02:23:38;;;;;;;;;16.00;12.75;;;;;13.80;80.87;101449.63;4960666;28;9587;-64
2023/05/11 02:26:07;;;;;;;;;15.75;14.00;;;;;13.77;81.02;101447.34;4953031;28;9547;-64
2023/05/11 02:28:34;;;;;;;;;14.00;12.75;;;;;13.76;80.99;101442.94;4954303;28;9653;-64
2023/05/11 02:31:08;;;;;;;;;15.50;12.00;;;;;13.77;81.09;101449.19;4927621;28;9508;-63
2023/05/11 02:33:42;;;;;;;;;14.00;13.75;;;;;13.78;80.85;101445.47;4942904;28;10328;-64
2023/05/11 02:36:13;;;;;;;;;15.75;15.75;;;;;13.77;81.16;101460.88;4952113;28;9615;-65
2023/05/11 02:38:44;;;;;;;;;16.50;13.00;;;;;13.74;80.94;101453.16;4945374;28;9642;-64
2023/05/11 02:41:16;;;;;;;;;16.75;12.00;;;;;13.72;81.03;101449.78;4934124;28;9646;-64
2023/05/11 02:43:51;;;;;;;;;11.75;11.25;;;;;13.74;81.27;101447.72;4941480;28;9822;-64
2023/05/11 02:46:28;;;;;;;;;12.00;10.00;;;;;13.74;81.22;101449.59;4951509;28;9646;-64
2023/05/11 02:48:59;;;;;;;;;15.75;11.50;;;;;13.69;81.36;101449.34;4948704;28;9599;-63
2023/05/11 02:51:35;;;;;;;;;14.75;9.75;;;;;13.68;81.57;101445.81;4939707;28;10560;-64
2023/05/11 02:54:05;;;;;;;;;12.50;10.25;;;;;13.68;81.63;101451.22;4947154;28;9598;-64
2023/05/11 02:56:37;;;;;;;;;7.75;7.25;;;;;13.67;81.74;101451.44;4921789;29;9726;-64
2023/05/11 02:59:04;;;;;;;;;7.25;6.25;;;;;13.65;81.78;101454.31;4939394;28;9640;-64
2023/05/11 03:01:30;;;;;;;;;14.75;12.50;;;;;13.64;81.71;101449.13;4958868;28;9642;-62
2023/05/11 03:03:57;;;;;;;;;7.75;7.75;;;;;13.64;81.64;101463.47;4930667;29;9647;-63
2023/05/11 03:06:25;;;;;;;;;9.25;8.00;;;;;13.57;81.58;101462.59;4949805;28;9686;-63
2023/05/11 03:08:52;;;;;;;;;7.75;5.50;;;;;13.50;82.23;101457.16;4937479;28;9696;-63
2023/05/11 03:11:20;;;;;;;;;8.00;6.00;;;;;13.53;82.23;101456.78;4952434;28;9573;-63
2023/05/11 03:13:48;;;;;;;;;9.00;9.00;;;;;13.53;82.09;101459.47;4943163;28;10400;-63
2023/05/11 03:16:17;;;;;;;;;10.50;8.50;;;;;13.56;82.33;101455.53;4938879;28;9536;-64
2023/05/11 03:18:48;;;;;;;;;8.75;6.25;;;;;13.59;82.48;101457.84;4943774;28;9494;-63
2023/05/11 03:21:20;;;;;;;;;6.00;6.00;;;;;13.59;82.05;101457.84;4946653;28;9397;-63
2023/05/11 03:23:48;;;;;;;;;9.25;8.75;;;;;13.58;82.14;101462.41;4963218;28;9337;-63
2023/05/11 03:26:17;;;;;;;;;7.50;7.25;;;;;13.59;82.01;101457.84;4939752;28;9473;-63
2023/05/11 03:28:46;;;;;;;;;6.33;6.33;;;;;13.56;82.23;101450.94;4956665;28;9566;-63
2023/05/11 03:31:13;;;;;;;;;6.25;6.25;;;;;13.56;81.98;101450.94;4959389;28;9543;-63
2023/05/11 03:33:40;;;;;;;;;5.75;5.75;;;;;13.56;82.36;101450.13;4949647;28;9568;-63
2023/05/11 03:36:09;;;;;;;;;9.50;9.50;;;;;13.54;82.43;101449.50;4945014;28;9489;-63
2023/05/11 03:38:37;;;;;;;;;11.25;10.00;;;;;13.52;82.31;101452.38;4919512;28;10303;-63
2023/05/11 03:41:05;;;;;;;;;6.25;6.25;;;;;13.54;82.29;101447.63;4944546;28;9500;-63
2023/05/11 03:43:36;;;;;;;;;7.75;6.50;;;;;13.57;82.08;101452.63;4943200;28;9508;-63
2023/05/11 03:46:04;;;;;;;;;6.50;6.00;;;;;13.54;82.20;101447.63;4957439;28;9456;-61
2023/05/11 03:48:31;;;;;;;;;5.25;5.25;;;;;13.54;82.21;101447.63;4950005;28;10368;-63
2023/05/11 03:50:58;;;;;;;;;8.00;7.00;;;;;13.58;82.43;101442.66;4921519;29;9495;-63
2023/05/11 03:53:25;;;;;;;;;5.50;5.25;;;;;13.60;82.36;101440.56;4935672;28;9622;-62
2023/05/11 03:55:52;;;;;;;;;5.75;5.75;;;;;13.64;82.42;101441.84;4948911;28;9615;-63
2023/05/11 03:58:19;;;;;;;;;8.00;7.00;;;;;13.64;82.26;101441.00;4949400;28;9584;-63
2023/05/11 04:00:45;;;;;;;;;11.50;10.00;;;;;13.64;81.88;101435.59;4945773;28;9399;-63
2023/05/11 04:03:12;;;;;;;;;13.75;9.50;;;;;13.61;82.12;101436.81;4943231;28;9654;-64
2023/05/11 04:05:40;;;;;;;;;8.00;7.00;;;;;13.60;82.30;101441.41;4928491;28;10216;-64
2023/05/11 04:08:09;;;;;;;;;10.75;8.25;;;;;13.59;82.32;101444.31;4918890;28;9479;-64
2023/05/11 04:10:37;;;;;;;;;9.00;8.25;;;;;13.58;82.38;101442.66;4968149;23;9601;-69
2023/05/11 04:13:03;;;;;;;;;10.75;9.75;;;;;13.60;82.33;101448.69;4934252;29;9619;-69
2023/05/11 04:15:30;;;;;;;;;5.25;5.25;;;;;13.61;82.49;101442.22;4926811;29;9566;-69
2023/05/11 04:17:56;;;;;;;;;9.25;6.75;;;;;13.60;82.33;101446.81;4945834;29;9562;-69
2023/05/11 04:20:23;;;;;;;;;7.75;6.75;;;;;13.61;82.47;101442.22;4933350;29;9400;-69
2023/05/11 04:22:49;;;;;;;;;8.75;7.50;;;;;13.62;82.46;101443.94;4938988;28;10135;-68
2023/05/11 04:25:16;;;;;;;;;7.00;7.00;;;;;13.64;82.71;101443.72;4923614;29;9623;-69
2023/05/11 04:27:43;;;;;;;;;9.00;6.25;;;;;13.58;82.40;101442.66;4927842;28;9401;-69
2023/05/11 04:30:10;;;;;;;;;7.00;7.00;;;;;13.53;82.63;101445.97;4929153;29;9434;-69
2023/05/11 04:32:37;;;;;;;;;6.00;6.00;;;;;13.55;83.10;101440.34;4930001;29;9617;-67
2023/05/11 04:35:04;;;;;;;;;7.00;5.25;;;;;13.50;83.04;101438.22;4936597;29;9507;-69
2023/05/11 04:37:33;;;;;;;;;7.50;6.00;;;;;13.44;83.03;101435.47;4926885;29;9566;-68
2023/05/11 04:40:03;;;;;;;;;5.25;5.00;;;;;13.43;83.37;101426.53;4929273;28;9597;-69
2023/05/11 04:42:35;;;;;;;;;9.50;8.00;;;;;13.43;83.64;101428.41;4939384;28;9452;-67
2023/05/11 04:45:03;;;;;;;;;10.50;10.00;;;;;13.46;83.62;101428.00;4927736;29;9550;-69
2023/05/11 04:47:30;;;;;;;;;8.75;8.75;;;;;13.48;83.55;101434.03;4947791;29;9646;-69
2023/05/11 04:49:57;;;;;;;;;10.75;9.75;;;;;13.48;83.47;101431.34;4923915;29;9546;-67
2023/05/11 04:52:24;;;;;;;;;10.00;9.50;;;;;13.51;83.51;101437.19;4926995;29;9720;-69
2023/05/11 04:54:51;;;;;;;;;15.50;12.00;;;;;13.52;83.61;101438.03;4932329;28;9683;-69
2023/05/11 04:57:18;;;;;;;;;7.25;7.25;;;;;13.52;83.46;101449.66;4929357;29;9620;-68
2023/05/11 04:59:45;;;;;;;;;9.75;8.50;;;;;13.54;83.93;101452.19;4940280;29;10331;-67
2023/05/11 05:02:12;;;;;;;;;11.00;10.25;;;;;13.57;83.41;101451.78;4925377;29;10267;-69
2023/05/11 05:04:38;;;;;;;;;8.50;7.00;;;;;13.57;83.62;101457.19;4934918;29;9466;-69
2023/05/11 05:07:06;;;;;;;;;16.50;9.50;;;;;13.58;83.70;101456.19;4930631;29;9487;-69
2023/05/11 05:09:32;;;;;;;;;11.50;7.25;;;;;13.59;83.68;101465.97;4928194;28;9620;-68
2023/05/11 05:11:59;;;;;;;;;6.50;6.00;;;;;13.62;83.73;101465.56;4938798;28;9725;-69
2023/05/11 05:14:25;;;;;;;;;7.75;7.75;;;;;13.64;83.92;101473.47;4935616;29;9823;-69
2023/05/11 05:16:53;;;;;;;;;8.50;7.75;;;;;13.66;83.76;101472.25;4929187;29;9473;-70
2023/05/11 05:19:20;;;;;;;;;5.50;5.50;;;;;13.67;83.97;101471.22;4943857;28;9655;-70
2023/05/11 05:21:48;;;;;;;;;7.00;7.00;;;;;13.67;83.60;101482.03;4934692;29;9483;-69
2023/05/11 05:24:14;;;;;;;;;7.00;6.33;;;;;13.68;83.66;101480.16;4935315;28;9423;-69
2023/05/11 05:26:42;;;;;;;;;4.75;4.75;;;;;13.67;83.61;101482.03;4939572;28;9481;-69
2023/05/11 05:29:10;;;;;;;;;5.67;4.00;;;;;13.67;83.94;101481.19;4950144;28;9483;-68
2023/05/11 05:31:37;;;;;;;;;11.67;9.00;;;;;13.68;83.87;101483.69;4932475;28;9473;-69
2023/05/11 05:34:05;;;;;;;;;10.25;6.25;;;;;13.69;83.92;101485.34;4950035;28;9341;-70
2023/05/11 05:36:32;;;;;;;;;6.00;6.00;;;;;13.72;83.63;101484.97;4937152;29;9557;-69
2023/05/11 05:38:58;;;;;;;;;8.25;7.00;;;;;13.75;83.45;101483.75;4939949;28;9497;-69
2023/05/11 05:41:25;;;;;;;;;10.33;6.00;;;;;13.79;83.79;101493.13;4931878;29;9623;-70
2023/05/11 05:43:52;;;;;;;;;5.67;5.67;;;;;13.82;83.69;101495.44;4926109;29;9453;-70
2023/05/11 05:46:19;;;;;;;;;5.33;5.00;;;;;13.82;83.31;101490.03;4953718;28;9488;-68
2023/05/11 05:48:46;;;;;;;;;3.33;3.33;;;;;13.83;83.54;101500.66;4951941;28;9398;-69
2023/05/11 05:51:12;;;;;;;;;6.75;6.75;;;;;13.80;83.57;101500.22;4930334;29;9410;-70
2023/05/11 05:53:39;;;;;;;;;6.33;6.00;;;;;13.76;83.97;101499.75;4925392;29;9406;-70
2023/05/11 05:56:06;;;;;;;;;6.00;6.00;;;;;13.76;83.86;101497.06;4932057;29;9495;-69
2023/05/11 05:58:32;;;;;;;;;5.00;5.00;;;;;13.79;84.19;101510.19;4931129;29;9434;-69
2023/05/11 06:00:59;;;;;;;;;4.75;4.75;;;;;13.77;83.50;101506.88;4931498;29;9239;-70
2023/05/11 06:03:26;;;;;;;;;6.00;6.00;;;;;13.77;83.84;101514.13;4934965;29;9559;-70
2023/05/11 06:05:55;;;;;;;;;5.75;5.75;;;;;13.78;84.11;101513.94;4939468;29;9492;-70
2023/05/11 06:08:22;;;;;;;;;6.00;6.00;;;;;13.82;84.01;101515.22;4930718;29;9478;-69
2023/05/11 06:10:48;;;;;;;;;5.50;5.00;;;;;13.87;84.26;101516.50;4931603;29;9409;-70
2023/05/11 06:13:16;;;;;;;;;9.00;5.00;;;;;13.93;83.99;101516.50;4929809;29;9382;-69
2023/05/11 06:15:43;;;;;;;;;6.00;6.00;;;;;14.00;83.76;101517.38;4942854;29;9263;-69
2023/05/11 06:18:21;;;;;;;;;3.67;3.67;;;;;14.07;83.78;101520.97;4927685;29;9399;-70
2023/05/11 06:20:48;;;;;;;;;7.67;7.33;;;;;14.11;83.66;101524.13;4942462;29;9259;-68
2023/05/11 06:23:16;;;;;;;;;5.33;5.00;;;;;14.16;83.18;101526.22;4939333;28;9447;-69
2023/05/11 06:25:43;;;;;;;;;7.00;7.00;;;;;14.16;83.12;101521.63;4944444;29;9484;-70
2023/05/11 06:28:10;;;;;;;;;4.67;4.67;;;;;14.18;82.80;101529.53;4930606;29;9506;-69
2023/05/11 06:30:37;;;;;;;;;7.67;6.67;;;;;14.20;82.77;101527.47;4943634;28;9275;-70
2023/05/11 06:33:06;;;;;;;;;4.00;4.00;;;;;14.22;82.91;101519.97;4939145;29;9251;-70
2023/05/11 06:35:35;;;;;;;;;5.00;5.00;;;;;14.22;82.51;101523.56;4934040;29;10097;-70
2023/05/11 06:38:04;;;;;;;;;4.00;3.33;;;;;14.23;82.69;101527.94;4950408;29;9240;-70
2023/05/11 06:40:31;;;;;;;;;7.00;7.00;;;;;14.22;82.61;101520.84;4933608;29;9343;-69
2023/05/11 06:42:58;;;;;;;;;8.00;6.00;;;;;14.22;82.57;101528.97;4939267;29;9250;-69
2023/05/11 06:45:40;;;;;;;;;8.33;5.33;;;;;14.24;82.51;101526.88;4931224;29;9320;-69
2023/05/11 06:48:07;;;;;;;;;8.33;7.33;;;;;14.21;82.59;101518.31;4931578;29;9336;-70
2023/05/11 06:50:34;;;;;;;;;6.00;5.00;;;;;14.19;82.79;101529.38;4934624;29;10324;-70
2023/05/11 06:53:00;;;;;;;;;9.00;8.00;;;;;14.20;82.60;101528.31;4931319;29;9183;-70
2023/05/11 06:55:28;;;;;;;;;6.00;6.00;;;;;14.21;82.83;101535.41;4940287;29;9358;-70
2023/05/11 06:57:54;;;;;;;;;6.33;6.33;;;;;14.24;82.70;101535.00;4933751;29;9403;-70
2023/05/11 07:00:21;;;;;;;;;7.67;6.67;;;;;14.26;82.88;101532.09;4934726;29;9361;-69
2023/05/11 07:02:47;;;;;;;;;6.67;5.33;;;;;14.26;82.56;101532.94;4941017;29;9416;-69
2023/05/11 07:05:14;;;;;;;;;5.67;5.67;;;;;14.27;82.91;101540.03;4933094;29;9431;-69
2023/05/11 07:07:40;;;;;;;;;4.00;4.00;;;;;14.26;82.56;101532.09;4935171;29;9480;-69
2023/05/11 07:10:07;;;;;;;;;5.67;5.67;;;;;14.25;82.84;101527.72;4934544;29;9147;-69
2023/05/11 07:12:34;;;;;;;;;6.00;6.00;;;;;14.26;82.83;101535.66;4928890;29;9279;-69
2023/05/11 07:15:00;;;;;;;;;5.33;4.00;;;;;14.26;82.55;101532.94;4936287;29;9223;-69
2023/05/11 07:17:27;;;;;;;;;9.33;7.00;;;;;14.26;82.55;101538.34;4932666;29;10008;-69
2023/05/11 07:19:54;;;;;;;;;4.67;4.67;;;;;14.27;82.72;101536.47;4934283;29;9445;-68
2023/05/11 07:22:20;;;;;;;;;6.67;6.67;;;;;14.20;82.16;101530.19;4933834;29;9290;-69
2023/05/11 07:24:47;;;;;;;;;6.67;5.33;;;;;14.15;82.83;101538.09;4934444;29;9034;-69
2023/05/11 07:27:13;;;;;;;;;3.33;3.33;;;;;14.10;83.00;101536.81;4934544;29;9367;-69
2023/05/11 07:29:40;;;;;;;;;6.00;6.00;;;;;14.12;82.99;101531.19;4934129;29;9259;-69
2023/05/11 07:32:06;;;;;;;;;6.33;5.00;;;;;14.15;82.59;101544.34;4929781;29;10120;-68
2023/05/11 07:34:33;;;;;;;;;6.33;6.33;;;;;14.16;82.68;101539.75;4932032;29;9286;-69
2023/05/11 07:36:59;;;;;;;;;7.00;4.33;;;;;14.18;82.50;101543.09;4934383;29;9320;-69
2023/05/11 07:39:25;;;;;;;;;5.67;4.67;;;;;14.20;82.60;101547.28;4933986;29;9334;-71
2023/05/11 07:41:52;;;;;;;;;6.00;6.00;;;;;14.24;82.36;101547.72;4932309;29;9418;-69
2023/05/11 07:44:18;;;;;;;;;6.33;5.33;;;;;14.24;82.33;101547.72;4940736;28;9189;-68
2023/05/11 07:46:45;;;;;;;;;6.67;5.00;;;;;14.23;82.52;101548.75;4933042;29;9912;-69
2023/05/11 07:49:11;;;;;;;;;4.33;4.33;;;;;14.19;82.00;101548.31;4933876;29;9272;-69
2023/05/11 07:51:48;;;;;;;;;6.67;5.00;;;;;14.20;82.63;101552.69;4933232;29;9330;-70
2023/05/11 07:54:14;;;;;;;;;7.67;6.00;;;;;14.24;82.82;101550.41;4930447;29;9410;-69
2023/05/11 07:56:41;;;;;;;;;7.50;5.50;;;;;14.29;82.48;101548.75;4934165;29;9113;-69
2023/05/11 07:59:08;;;;;;;;;7.33;7.33;;;;;14.34;82.60;101550.88;4933730;29;9087;-69
2023/05/11 08:01:34;;;;;;;;;6.33;6.33;;;;;14.38;82.68;101557.59;4933587;29;9333;-70
2023/05/11 08:04:01;;;;;;;;;6.67;4.00;;;;;14.41;82.74;101549.03;4929989;29;9241;-70
2023/05/11 08:06:27;;;;;;;;;3.33;2.67;;;;;14.46;83.04;101551.13;4933807;29;9184;-70
2023/05/11 08:08:53;;;;;;;;;6.00;5.33;;;;;14.50;82.51;101555.13;4940201;29;9201;-69
2023/05/11 08:11:20;;;;;;;;;5.33;5.33;;;;;14.49;81.91;101556.19;4933733;29;9185;-69
2023/05/11 08:13:47;;;;;;;;;5.67;5.67;;;;;14.42;82.29;101556.13;4929002;29;9173;-69
2023/05/11 08:16:13;;;;;;;;;4.00;4.00;;;;;14.42;82.94;101563.41;4933163;29;9302;-69
2023/05/11 08:18:40;;;;;;;;;7.00;5.00;;;;;14.39;82.99;101559.25;4933538;29;9104;-70
2023/05/11 08:21:06;;;;;;;;;5.00;3.33;;;;;14.40;83.06;101558.19;4933552;29;9021;-70
2023/05/11 08:23:33;;;;;;;;;7.67;7.67;;;;;14.42;82.86;101557.97;4936308;29;9201;-70
2023/05/11 08:26:00;;;;;;;;;4.67;4.67;;;;;14.41;83.48;101561.75;4933128;29;9129;-68
2023/05/11 08:28:26;;;;;;;;;8.00;6.00;;;;;14.35;83.49;101558.81;4933326;29;9093;-70
2023/05/11 08:30:54;;;;;;;;;2.00;2.00;;;;;14.35;83.81;101561.50;4933118;29;9880;-70
2023/05/11 08:33:22;;;;;;;;;5.00;5.00;;;;;14.36;84.02;101565.06;4929336;29;9094;-70
2023/05/11 08:36:03;;;;;;;;;5.67;5.33;;;;;14.37;83.76;101565.88;4932443;29;9208;-69
2023/05/11 08:38:30;;;;;;;;;8.00;8.00;;;;;14.37;84.16;101563.19;4933383;29;9240;-68
2023/05/11 08:40:56;;;;;;;;;9.00;6.67;;;;;14.37;83.39;101561.31;4932875;29;9330;-69
2023/05/11 08:43:25;;;;;;;;;6.33;5.33;;;;;14.35;83.59;101566.94;4930368;29;9229;-69
2023/05/11 08:45:58;;;;;;;;;7.33;7.00;;;;;14.34;83.75;101567.97;4931613;29;9395;-69
2023/05/11 08:48:25;;;;;;;;;9.00;6.67;;;;;14.31;83.81;101568.38;4933487;29;9173;-68
2023/05/11 08:50:52;;;;;;;;;10.33;7.33;;;;;14.31;84.01;101564.84;4932813;29;9391;-69
2023/05/11 08:53:18;;;;;;;;;6.00;6.00;;;;;14.33;84.42;101560.88;4936590;29;11271;-68
2023/05/11 08:55:46;;;;;;;;;3.33;3.33;;;;;14.37;84.28;101566.72;4931400;29;9170;-69
2023/05/11 08:58:19;;;;;;;;;12.00;10.67;;;;;14.38;84.00;101568.41;4925360;29;9318;-69
2023/05/11 09:00:47;;;;;;;;;12.33;11.67;;;;;14.39;84.13;101575.50;4929256;29;9414;-70
2023/05/11 09:03:18;;;;;;;;;8.00;6.00;;;;;14.39;84.33;101575.50;4925354;29;9414;-70
2023/05/11 09:05:46;;;;;;;;;9.33;7.67;;;;;14.39;84.08;101574.66;4931578;29;9305;-69
2023/05/11 09:08:14;;;;;;;;;10.33;7.67;;;;;14.41;84.42;101575.28;4932685;29;9175;-69
2023/05/11 09:10:42;;;;;;;;;10.33;7.00;;;;;14.43;84.44;101576.75;4944933;29;9167;-71
2023/05/11 09:13:09;;;;;;;;;7.33;7.00;;;;;14.46;84.66;101575.50;4932813;29;9309;-70
2023/05/11 09:15:36;;;;;;;;;10.33;10.00;;;;;14.43;84.01;101571.34;4932435;29;9807;-70
2023/05/11 09:18:04;;;;;;;;;11.33;7.33;;;;;14.42;84.32;101575.09;4932533;29;10205;-70
2023/05/11 09:20:32;;;;;;;;;12.33;10.00;;;;;14.45;84.42;101568.44;4932253;29;9325;-71
2023/05/11 09:22:59;;;;;;;;;10.00;9.67;;;;;14.46;84.20;101578.22;4932702;29;9264;-71
2023/05/11 09:25:31;;;;;;;;;2.33;1.33;;;;;14.47;84.23;101577.19;4932236;29;9298;-70
2023/05/11 09:27:59;;;;;;;;;7.33;6.33;;;;;14.43;83.57;101573.22;4947029;29;9345;-69
2023/05/11 09:30:26;;;;;;;;;3.33;3.33;;;;;14.34;83.88;101573.41;4932133;29;9430;-69
2023/05/11 09:32:58;;;;;;;;;3.00;3.00;;;;;14.33;83.96;101576.28;4938701;29;9281;-70
2023/05/11 09:35:32;;;;;;;;;2.67;2.00;;;;;14.34;83.83;101575.25;4931056;29;9041;-70
2023/05/11 09:38:03;;;;;;;;;5.00;5.00;;;;;14.37;84.04;101574.84;4932305;29;9162;-70
2023/05/11 09:40:35;;;;;;;;;5.67;5.67;;;;;14.44;84.00;101566.75;4932414;29;9217;-70
2023/05/11 09:43:15;;;;;;;;;4.67;4.67;;;;;14.46;83.61;101570.09;4929500;29;9199;-69
2023/05/11 09:45:44;;;;;;;;;6.33;6.33;;;;;14.41;83.87;101578.81;4932330;29;9181;-69
2023/05/11 09:48:19;;;;;;;;;9.00;9.00;;;;;14.47;84.41;101578.03;4931078;29;9171;-69
2023/05/11 09:50:47;;;;;;;;;6.00;4.67;;;;;14.54;84.05;101578.94;4932334;29;9181;-69
2023/05/11 09:53:14;;;;;;;;;8.33;6.00;;;;;14.59;84.02;101581.03;4927098;29;9193;-69
2023/05/11 09:55:52;;;;;;;;;7.00;6.67;;;;;14.63;83.82;101576.88;4932167;29;9170;-70
2023/05/11 09:58:18;;;;;;;;;10.67;9.00;;;;;14.63;84.14;101574.16;4932523;29;9243;-69
2023/05/11 10:00:52;;;;;;;;;7.00;7.00;;;;;14.67;84.10;101574.59;4932435;29;9429;-69
2023/05/11 10:03:19;;;;;;;;;11.33;9.33;;;;;14.65;83.45;101582.09;4928165;29;9243;-69
2023/05/11 10:05:57;;;;;;;;;10.00;10.00;;;;;14.64;83.61;101585.84;4938699;29;9393;-69
2023/05/11 10:08:29;;;;;;;;;18.00;17.00;;;;;14.58;83.64;101592.88;4935735;29;9387;-70
2023/05/11 10:10:56;;;;;;;;;13.33;12.00;;;;;14.55;84.27;101591.44;4950754;29;9466;-67
2023/05/11 10:13:23;;;;;;;;;20.50;19.75;;;;;14.46;83.84;101591.75;4930079;29;9430;-68
2023/05/11 10:15:51;;;;;;;;;19.00;16.00;;;;;14.39;84.45;101591.75;4935637;29;9604;-65
2023/05/11 10:18:17;;;;;;;;;23.00;17.75;;;;;14.32;83.65;101597.13;4936121;29;9557;-68
2023/05/11 10:20:46;;;;;;;;;17.50;15.00;;;;;14.25;84.33;101590.81;4946760;29;9587;-67
2023/05/11 10:23:13;;;;;;;;;13.50;13.50;;;;;14.25;84.53;101596.25;4925975;29;9638;-68
2023/05/11 10:25:41;;;;;;;;;14.75;11.00;;;;;14.27;84.84;101598.78;4946127;29;9560;-66
2023/05/11 10:28:09;;;;;;;;;18.67;12.33;;;;;14.31;84.66;101592.75;4931598;29;9562;-67
2023/05/11 10:30:36;;;;;;;;;12.33;9.67;;;;;14.28;84.72;101587.72;4935573;29;9331;-67
2023/05/11 10:33:05;;;;;;;;;11.00;8.33;;;;;14.30;84.23;101587.50;4942493;29;10207;-66
2023/05/11 10:35:31;;;;;;;;;8.67;8.67;;;;;14.33;84.43;101585.25;4935188;29;9245;-68
2023/05/11 10:37:59;;;;;;;;;9.33;9.33;;;;;14.37;84.23;101592.97;4935884;29;9407;-66
2023/05/11 10:40:26;;;;;;;;;12.67;10.00;;;;;14.34;83.81;101583.38;4946893;29;9429;-66
2023/05/11 10:43:08;;;;;;;;;15.00;10.00;;;;;14.33;84.09;101596.06;4930637;29;9557;-68
2023/05/11 10:46:02;;;;;;;;;17.50;15.00;;;;;14.24;83.87;101597.28;4928713;29;9396;-65
2023/05/11 10:48:47;;;;;;;;;14.67;13.33;;;;;14.23;84.55;101592.09;4935422;29;9396;-66
2023/05/11 10:51:32;;;;;;;;;13.67;10.33;;;;;14.25;84.69;101592.69;4935080;29;9247;-69
2023/05/11 10:54:17;;;;;;;;;9.67;9.33;;;;;14.33;85.39;101593.38;4928799;29;9393;-70
2023/05/11 10:56:54;;;;;;;;;9.00;9.00;;;;;14.45;85.12;101596.34;4935107;29;9255;-68
2023/05/11 10:59:56;;;;;;;;;11.67;10.00;;;;;14.54;84.22;101595.19;4949214;29;9290;-68
2023/05/11 11:02:30;;;;;;;;;7.33;5.67;;;;;14.60;83.79;101588.13;4922126;29;9400;-67
2023/05/11 11:04:57;;;;;;;;;8.33;6.00;;;;;14.63;82.93;101603.16;4934474;29;9251;-65
2023/05/11 11:07:24;;;;;;;;;9.67;9.67;;;;;14.68;83.07;101593.34;4935242;29;9287;-67
2023/05/11 11:09:58;;;;;;;;;6.67;6.33;;;;;14.68;82.58;101589.81;4934853;29;9073;-67
2023/05/11 11:12:28;;;;;;;;;9.67;9.67;;;;;14.71;82.60;101590.25;4938469;29;9905;-67
2023/05/11 11:14:59;;;;;;;;;18.00;13.00;;;;;14.77;82.54;101586.72;4934675;29;9265;-67
2023/05/11 11:17:30;;;;;;;;;13.00;9.00;;;;;14.84;83.44;101584.84;4926878;29;9487;-66
2023/05/11 11:20:00;;;;;;;;;12.67;12.67;;;;;15.00;84.02;101588.25;4933500;29;9342;-67
2023/05/11 11:22:40;;;;;;;;;15.00;12.33;;;;;15.04;82.07;101594.94;4934711;29;9270;-67
2023/05/11 11:25:11;;;;;;;;;11.00;11.00;;;;;14.92;82.23;101599.28;4932202;29;9465;-69
2023/05/11 11:27:43;;;;;;;;;14.67;11.00;;;;;14.80;82.27;101590.91;4926278;29;9321;-67
2023/05/11 11:30:21;;;;;;;;;14.00;13.00;;;;;14.73;83.10;101592.75;4934627;29;9312;-67
2023/05/11 11:32:52;;;;;;;;;13.33;11.33;;;;;14.74;82.75;101586.28;4920112;29;9488;-67
2023/05/11 11:35:40;;;;;;;;;12.33;11.67;;;;;14.80;83.27;101585.47;4933396;29;9446;-68